Time;durP1;ratioP1;P1;durP2;ratioP2;P2;SDS_P1;SDS_P2;PMS_P1;PMS_P2;Temp;Humidity;BMP_temperature;BMP_pressure;BME280_temperature;BME280_humidity;BME280_pressure;Samples;Min_cycle;Max_cycle;Signal;HPM_P1;HPM_P2
2022/03/23 00:01:34;;;;;;;12.10;4.70;;;;;;;-1.33;66.60;100479.39;104899;1271;75368;-28
2022/03/23 00:04:05;;;;;;;7.70;4.50;;;;;;;-1.30;66.80;100478.32;104795;1271;75071;-28
2022/03/23 00:06:35;;;;;;;8.90;4.30;;;;;;;-1.28;66.96;100474.89;104755;1271;73535;-28
2022/03/23 00:09:05;;;;;;;9.50;5.20;;;;;;;-1.25;66.48;100475.38;104967;1274;61950;-28
2022/03/23 00:11:55;;;;;;;9.00;5.10;;;;;;;-1.26;66.05;100472.31;105132;1271;62610;-28
2022/03/23 00:14:24;;;;;;;9.60;4.60;;;;;;;-1.26;65.60;100468.06;105154;1271;74529;-28
2022/03/23 00:17:14;;;;;;;10.20;4.20;;;;;;;-1.28;65.43;100462.11;104779;1271;75563;-28
2022/03/23 00:19:47;;;;;;;9.20;4.70;;;;;;;-1.27;65.47;100462.79;105025;1271;73398;-28
2022/03/23 00:22:17;;;;;;;8.90;5.00;;;;;;;-1.29;66.25;100458.54;105127;1271;61263;-28
2022/03/23 00:24:50;;;;;;;9.80;4.90;;;;;;;-1.40;66.03;100456.10;105094;1271;62092;-28
2022/03/23 00:27:19;;;;;;;10.00;5.20;;;;;;;-1.57;66.50;100454.89;104804;1271;74612;-28
2022/03/23 00:29:50;;;;;;;7.40;4.50;;;;;;;-1.75;67.53;100453.67;104900;1271;75006;-28
2022/03/23 00:32:20;;;;;;;5.90;3.00;;;;;;;-1.82;68.19;100451.19;104770;1271;73607;-28
2022/03/23 00:34:50;;;;;;;8.20;4.10;;;;;;;-1.21;68.13;100447.72;104973;1271;62623;-28
2022/03/23 00:37:20;;;;;;;7.30;4.60;;;;;;;-0.11;65.24;100449.08;105009;1271;62026;-28
2022/03/23 00:39:50;;;;;;;9.50;4.80;;;;;;;0.33;63.12;100446.00;105166;1271;75623;-28
2022/03/23 00:42:21;;;;;;;7.90;4.20;;;;;;;0.31;62.47;100440.73;105097;1274;76337;-29
2022/03/23 00:44:53;;;;;;;8.30;3.70;;;;;;;0.14;62.26;100439.65;105129;1270;74680;-28
2022/03/23 00:47:24;;;;;;;8.00;3.80;;;;;;;-0.07;62.61;100434.17;104809;1271;61155;-28
2022/03/23 00:49:55;;;;;;;9.40;3.70;;;;;;;-0.32;63.25;100437.44;104879;1271;61270;-28
2022/03/23 00:52:25;;;;;;;7.90;3.90;;;;;;;-0.54;63.43;100431.92;104819;1270;75544;-28
2022/03/23 00:54:54;;;;;;;7.60;4.00;;;;;;;-0.72;64.05;100430.45;104875;1273;76004;-28
2022/03/23 00:57:26;;;;;;;10.00;5.20;;;;;;;-0.89;64.62;100425.04;104987;1271;74466;-28
2022/03/23 00:59:56;;;;;;;10.20;4.70;;;;;;;-1.03;64.91;100419.23;104883;1270;61174;-28
2022/03/23 01:02:27;;;;;;;11.40;4.90;;;;;;;-1.10;64.22;100422.21;104966;1271;61324;-28
2022/03/23 01:04:59;;;;;;;16.30;5.60;;;;;;;-1.11;64.56;100419.33;105078;1271;75559;-28
2022/03/23 01:07:29;;;;;;;10.20;5.50;;;;;;;-1.14;64.73;100416.98;104872;1270;76077;-28
2022/03/23 01:10:20;;;;;;;10.70;5.00;;;;;;;-1.25;65.09;100414.55;104852;1270;75479;-30
2022/03/23 01:12:51;;;;;;;11.10;5.40;;;;;;;-1.37;65.42;100415.70;104415;1272;452025;-28
2022/03/23 01:15:20;;;;;;;12.40;5.40;;;;;;;-1.47;65.43;100411.70;104918;1271;61132;-30
2022/03/23 01:17:53;;;;;;;10.80;5.20;;;;;;;-1.57;66.10;100413.33;104767;1271;74723;-29
2022/03/23 01:20:24;;;;;;;9.40;4.60;;;;;;;-1.67;66.73;100410.85;104923;1271;75032;-30
2022/03/23 01:22:59;;;;;;;10.20;5.30;;;;;;;-1.75;67.72;100409.07;104900;1270;74413;-28
2022/03/23 01:25:30;;;;;;;13.30;5.00;;;;;;;-1.82;67.62;100404.54;104921;1270;61132;-30
2022/03/23 01:28:00;;;;;;;10.50;5.10;;;;;;;-1.88;68.03;100408.33;104823;1270;62194;-30
2022/03/23 01:30:32;;;;;;;10.40;5.00;;;;;;;-1.91;67.96;100405.30;105158;1270;75583;-30
2022/03/23 01:33:04;;;;;;;9.90;5.00;;;;;;;-1.94;68.71;100402.59;105068;1271;75974;-29
2022/03/23 01:35:34;;;;;;;13.20;4.70;;;;;;;-1.96;68.79;100402.60;104823;1271;72999;-29
2022/03/23 01:38:03;;;;;;;5.10;2.60;;;;;;;-1.95;69.09;100401.23;104882;1271;61925;-29
2022/03/23 01:40:34;;;;;;;5.80;3.00;;;;;;;-1.34;68.33;100401.52;104877;1270;61017;-30
2022/03/23 01:43:05;;;;;;;8.60;4.50;;;;;;;-0.31;65.52;100401.40;104844;1270;74493;-29
2022/03/23 01:45:34;;;;;;;8.20;4.70;;;;;;;0.06;63.98;100401.69;104715;1271;74135;-29
2022/03/23 01:48:05;;;;;;;11.80;4.80;;;;;;;-0.02;63.57;100397.03;104920;1271;73244;-29
2022/03/23 01:50:40;;;;;;;9.70;4.00;;;;;;;-0.19;63.95;100399.35;104805;1271;61784;-29
2022/03/23 01:53:10;;;;;;;6.10;3.40;;;;;;;-0.37;64.32;100396.03;104885;1271;62272;-30
2022/03/23 01:55:41;;;;;;;9.90;4.30;;;;;;;-0.52;64.79;100397.27;104908;1270;74324;-29
2022/03/23 01:58:11;;;;;;;9.20;4.90;;;;;;;-0.70;65.36;100397.02;104758;1271;76218;-29
2022/03/23 02:00:41;;;;;;;10.80;5.00;;;;;;;-1.03;66.91;100403.21;104654;1274;73384;-29
2022/03/23 02:03:12;;;;;;;8.80;4.10;;;;;;;-1.33;67.16;100403.89;104952;1271;61105;-29
2022/03/23 02:05:43;;;;;;;9.20;5.60;;;;;;;-1.41;66.19;100400.58;104927;1271;61166;-29
2022/03/23 02:08:13;;;;;;;12.40;6.30;;;;;;;-1.82;71.09;100406.06;104785;1272;75224;-29
2022/03/23 02:10:44;;;;;;;9.50;5.50;;;;;;;-1.78;69.37;100399.23;104936;1271;74834;-29
2022/03/23 02:13:15;;;;;;;16.10;6.60;;;;;;;-1.88;68.80;100392.67;104752;1272;74515;-29
2022/03/23 02:15:45;;;;;;;14.40;6.70;;;;;;;-2.06;69.20;100391.96;104825;1271;61143;-29
2022/03/23 02:18:15;;;;;;;8.00;5.20;;;;;;;-2.18;70.35;100388.13;104910;1271;61077;-29
2022/03/23 02:20:45;;;;;;;14.60;4.80;;;;;;;-2.26;71.50;100385.31;104902;1271;75434;-29
2022/03/23 02:23:15;;;;;;;14.40;5.00;;;;;;;-2.24;72.00;100385.13;104792;1271;75002;-29
2022/03/23 02:25:46;;;;;;;11.10;5.20;;;;;;;-2.22;71.39;100382.40;104975;1271;74191;-29
2022/03/23 02:28:16;;;;;;;5.50;2.70;;;;;;;-2.27;71.15;100381.58;104906;1271;62113;-29
2022/03/23 02:30:47;;;;;;;11.70;4.30;;;;;;;-1.67;71.41;100383.44;104889;1271;61999;-29
2022/03/23 02:33:19;;;;;;;10.50;4.40;;;;;;;-0.58;69.09;100387.30;105004;1271;75606;-29
2022/03/23 02:35:50;;;;;;;8.30;4.60;;;;;;;-0.18;67.19;100385.50;104911;1271;75805;-30
2022/03/23 02:38:20;;;;;;;10.40;4.40;;;;;;;-0.21;66.74;100383.86;104962;1271;74272;-29
2022/03/23 02:40:50;;;;;;;8.40;3.00;;;;;;;-0.40;66.99;100384.82;104940;1271;61146;-29
2022/03/23 02:43:20;;;;;;;9.20;4.10;;;;;;;-0.61;67.83;100383.40;105141;1271;62054;-29
2022/03/23 02:45:50;;;;;;;8.20;3.60;;;;;;;-0.86;68.25;100378.96;105143;1271;73429;-29
2022/03/23 02:48:19;;;;;;;8.70;3.60;;;;;;;-1.11;69.06;100373.33;104862;1272;76505;-29
2022/03/23 02:50:49;;;;;;;8.80;4.50;;;;;;;-1.30;69.90;100370.80;104939;1271;74401;-29
2022/03/23 03:02:22;;;;;;;;;;;;;;;-2.02;71.07;100368.78;104923;1270;73992;-29
2022/03/23 03:04:53;;;;;;;5.40;3.00;;;;;;;-2.14;71.95;100362.23;105117;1271;73785;-29
2022/03/23 03:08:44;;;;;;;4.90;2.60;;;;;;;-2.22;72.45;100364.52;105129;1271;61156;-29
2022/03/23 03:10:20;;;;;;;6.40;3.90;;;;;;;-2.29;72.51;100356.23;105066;1271;61030;-29
2022/03/23 03:13:09;;;;;;;7.60;4.40;;;;;;;-2.32;72.62;100360.35;104884;1271;75775;-29
2022/03/23 03:15:43;;;;;;;8.70;4.00;;;;;;;-2.36;73.41;100357.98;104921;1271;76065;-29
2022/03/23 03:18:34;;;;;;;7.20;2.80;;;;;;;-2.32;73.35;100356.94;104860;1271;74417;-29
2022/03/23 03:21:06;;;;;;;9.90;3.80;;;;;;;-1.58;72.47;100360.88;104825;1271;61150;-29
2022/03/23 03:23:48;;;;;;;10.30;5.30;;;;;;;-0.63;69.23;100361.94;104741;1272;61105;-29
2022/03/23 03:26:19;;;;;;;9.20;4.70;;;;;;;-0.42;67.59;100364.20;104962;1271;75568;-29
2022/03/23 03:28:50;;;;;;;9.60;5.10;;;;;;;-0.56;66.77;100362.52;105112;1271;76123;-30
2022/03/23 03:31:20;;;;;;;8.70;3.50;;;;;;;-0.81;66.95;100364.23;104822;1271;74407;-29
2022/03/23 03:33:50;;;;;;;7.50;3.50;;;;;;;-1.07;67.54;100361.51;104898;1271;61366;-29
2022/03/23 03:36:20;;;;;;;14.00;4.20;;;;;;;-1.33;67.94;100355.50;104975;1271;61965;-28
2022/03/23 03:38:50;;;;;;;9.10;3.90;;;;;;;-1.55;68.25;100358.98;104873;1271;77186;-28
2022/03/23 03:41:20;;;;;;;6.50;3.80;;;;;;;-1.75;68.78;100360.20;105150;1271;74763;-29
2022/03/23 03:43:50;;;;;;;8.20;5.00;;;;;;;-1.91;69.05;100358.81;105160;1271;74161;-28
2022/03/23 03:46:19;;;;;;;9.40;5.10;;;;;;;-2.03;69.24;100362.33;105238;1271;61105;-28
2022/03/23 03:48:49;;;;;;;11.10;4.90;;;;;;;-2.13;69.65;100366.15;105097;1271;61111;-28
2022/03/23 03:51:19;;;;;;;11.80;5.00;;;;;;;-2.26;70.37;100365.08;104977;1270;75986;-28
2022/03/23 03:53:49;;;;;;;8.10;4.90;;;;;;;-2.35;70.84;100365.46;104841;1271;74451;-30
2022/03/23 03:56:19;;;;;;;8.00;5.00;;;;;;;-2.43;70.84;100363.30;104946;1271;74448;-30
2022/03/23 03:58:49;;;;;;;6.20;3.10;;;;;;;-2.50;71.46;100359.27;104961;1271;61086;-29
2022/03/23 04:01:19;;;;;;;9.50;4.60;;;;;;;-1.94;71.76;100362.58;104761;1271;61179;-30
2022/03/23 04:03:51;;;;;;;9.00;5.40;;;;;;;-0.89;69.87;100363.48;104921;1270;74276;-28
2022/03/23 04:06:24;;;;;;;13.10;5.10;;;;;;;-0.45;68.20;100362.21;105127;1271;74544;-28
2022/03/23 04:08:54;;;;;;;13.90;6.00;;;;;;;-0.49;67.53;100359.19;104800;1271;74393;-28
2022/03/23 04:11:24;;;;;;;8.50;4.60;;;;;;;-0.66;68.17;100362.33;104962;1270;61119;-30
2022/03/23 04:13:56;;;;;;;10.00;4.10;;;;;;;-0.81;68.21;100367.14;104968;1271;62055;-30
2022/03/23 04:16:25;;;;;;;9.10;4.50;;;;;;;-0.94;68.37;100363.90;105137;1271;75580;-28
2022/03/23 04:19:15;;;;;;;10.00;5.00;;;;;;;-1.10;68.52;100366.48;105088;1270;77315;-28
2022/03/23 04:21:45;;;;;;;11.80;5.30;;;;;;;-1.18;68.65;100363.34;105149;1271;73301;-28
2022/03/23 04:24:35;;;;;;;14.00;5.80;;;;;;;-1.24;68.69;100365.62;105090;1270;61511;-28
2022/03/23 04:27:05;;;;;;;9.50;5.60;;;;;;;-1.24;68.68;100366.30;105148;1270;61128;-28
2022/03/23 04:29:35;;;;;;;11.60;6.30;;;;;;;-1.22;68.83;100364.92;104874;1271;75386;-28
2022/03/23 04:32:05;;;;;;;14.20;6.40;;;;;;;-1.18;68.69;100365.23;104828;1271;73826;-29
2022/03/23 04:34:35;;;;;;;14.80;6.50;;;;;;;-1.10;68.36;100368.86;104717;1271;73428;-29
2022/03/23 04:37:05;;;;;;;12.00;6.40;;;;;;;-0.96;68.06;100370.41;104879;1270;61126;-29
2022/03/23 04:39:35;;;;;;;12.60;6.20;;;;;;;-0.79;67.80;100371.19;104987;1270;62082;-29
2022/03/23 04:42:06;;;;;;;10.20;5.40;;;;;;;-0.60;66.84;100375.91;104873;1271;75550;-29
2022/03/23 04:44:36;;;;;;;12.00;5.80;;;;;;;-0.41;65.97;100377.31;104869;1271;76081;-29
2022/03/23 04:47:06;;;;;;;12.00;6.10;;;;;;;-0.21;65.45;100376.51;104916;1270;74411;-28
2022/03/23 04:49:36;;;;;;;12.50;6.10;;;;;;;-0.01;65.15;100378.24;104813;1271;61455;-28
2022/03/23 04:52:06;;;;;;;17.20;6.90;;;;;;;0.19;65.20;100374.34;104954;1270;61027;-28
2022/03/23 04:54:37;;;;;;;15.10;7.10;;;;;;;0.38;64.87;100377.23;104767;1270;75692;-28
2022/03/23 04:57:07;;;;;;;13.90;7.10;;;;;;;0.56;64.41;100374.52;104851;1271;74943;-28
2022/03/23 04:59:37;;;;;;;15.80;6.90;;;;;;;0.73;63.75;100375.56;104872;1271;73548;-28
2022/03/23 05:02:07;;;;;;;13.40;6.80;;;;;;;0.87;63.59;100372.21;104919;1270;61121;-28
2022/03/23 05:04:38;;;;;;;15.70;6.60;;;;;;;1.01;63.54;100368.16;104898;1270;62145;-28
2022/03/23 05:07:10;;;;;;;12.60;6.40;;;;;;;1.18;63.08;100368.33;104882;1270;75032;-28
2022/03/23 05:09:40;;;;;;;14.40;6.80;;;;;;;1.36;62.93;100368.10;104835;1271;76356;-28
2022/03/23 05:12:28;;;;;;;13.90;5.90;;;;;;;1.61;62.43;100366.34;104870;1270;74486;-28
2022/03/23 05:15:00;;;;;;;9.00;5.50;;;;;;;1.81;61.87;100366.55;104874;1270;61151;-28
2022/03/23 05:17:37;;;;;;;10.10;6.10;;;;;;;2.02;62.01;100363.13;104817;1272;61113;-27
2022/03/23 05:20:08;;;;;;;13.10;6.10;;;;;;;2.25;62.05;100366.66;104986;1273;73524;-27
2022/03/23 05:22:47;;;;;;;11.00;6.10;;;;;;;2.47;61.86;100367.65;105056;1271;75877;-27
2022/03/23 05:25:17;;;;;;;11.20;5.70;;;;;;;2.65;62.13;100366.96;105039;1270;74293;-28
2022/03/23 05:27:48;;;;;;;12.30;6.10;;;;;;;2.89;62.10;100362.90;104910;1270;61037;-28
2022/03/23 05:30:18;;;;;;;13.40;6.90;;;;;;;3.11;62.45;100365.87;105091;1270;61137;-27
2022/03/23 05:32:48;;;;;;;11.20;6.40;;;;;;;3.28;62.69;100366.90;105143;1270;74954;-27
2022/03/23 05:35:18;;;;;;;12.30;6.20;;;;;;;3.46;62.14;100366.38;105147;1271;74829;-27
2022/03/23 05:37:48;;;;;;;15.70;7.90;;;;;;;3.71;60.49;100364.21;105145;1270;74391;-27
2022/03/23 05:40:19;;;;;;;14.10;8.10;;;;;;;3.93;60.22;100364.73;105147;1270;61332;-27
2022/03/23 05:42:50;;;;;;;12.60;7.40;;;;;;;4.07;60.11;100362.88;105107;1270;61789;-27
2022/03/23 05:45:24;;;;;;;17.30;7.60;;;;;;;4.16;60.05;100361.89;105133;1270;74530;-27
2022/03/23 05:47:56;;;;;;;13.50;7.30;;;;;;;4.23;61.47;100366.64;105261;1270;76180;-27
2022/03/23 05:50:26;;;;;;;13.00;7.60;;;;;;;4.33;60.74;100361.67;105139;1270;73386;-27
2022/03/23 05:52:56;;;;;;;13.90;7.90;;;;;;;4.43;61.33;100360.77;105010;1270;61234;-27
2022/03/23 05:55:26;;;;;;;13.30;7.80;;;;;;;4.51;61.72;100361.20;104797;1270;61025;-27
2022/03/23 05:57:56;;;;;;;15.20;7.40;;;;;;;4.58;61.87;100360.98;105122;1270;75513;-27
2022/03/23 06:00:26;;;;;;;14.40;7.40;;;;;;;4.62;61.48;100357.73;104938;1270;75641;-27
2022/03/23 06:03:02;;;;;;;9.20;5.30;;;;;;;4.67;62.17;100355.47;104842;1270;76065;-28
2022/03/23 06:05:31;;;;;;;13.30;6.60;;;;;;;4.74;61.53;100354.37;104953;1270;61129;-27
2022/03/23 06:08:01;;;;;;;10.90;7.30;;;;;;;4.84;61.10;100348.67;105250;1270;62188;-27
2022/03/23 06:10:31;;;;;;;19.00;7.60;;;;;;;4.97;59.93;100348.36;105152;1270;75342;-27
2022/03/23 06:13:04;;;;;;;18.90;7.30;;;;;;;4.90;58.63;100349.31;105116;1271;74910;-27
2022/03/23 06:15:36;;;;;;;16.70;8.30;;;;;;;4.92;58.50;100349.58;104942;1270;74678;-28
2022/03/23 06:18:06;;;;;;;14.30;7.50;;;;;;;5.11;58.20;100346.14;104760;1273;61142;-27
2022/03/23 06:20:36;;;;;;;12.50;6.80;;;;;;;5.20;58.59;100348.55;104939;1270;62721;-27
2022/03/23 06:23:14;;;;;;;13.10;6.90;;;;;;;5.31;59.05;100343.81;104921;1270;76283;-27
2022/03/23 06:25:43;;;;;;;14.70;7.40;;;;;;;5.49;58.59;100345.02;105139;1270;76064;-27
2022/03/23 06:28:13;;;;;;;17.70;8.20;;;;;;;5.71;58.00;100344.48;105106;1270;74262;-27
2022/03/23 06:30:43;;;;;;;16.10;7.40;;;;;;;5.90;57.38;100345.42;105135;1270;61166;-27
2022/03/23 06:33:13;;;;;;;15.00;7.50;;;;;;;6.01;57.08;100340.71;105022;1271;61113;-27
2022/03/23 06:35:43;;;;;;;17.00;7.70;;;;;;;6.17;57.06;100343.86;104943;1270;73531;-27
2022/03/23 06:38:14;;;;;;;13.60;8.00;;;;;;;6.31;56.98;100341.52;104772;1273;76307;-27
2022/03/23 06:40:44;;;;;;;17.00;7.90;;;;;;;6.53;56.00;100341.30;104879;1269;72140;-27
2022/03/23 06:43:15;;;;;;;14.90;7.60;;;;;;;6.77;55.45;100342.10;104821;1270;61345;-27
2022/03/23 06:45:44;;;;;;;16.90;8.80;;;;;;;6.99;54.97;100344.59;104974;1270;62012;-27
2022/03/23 06:48:14;;;;;;;16.90;7.90;;;;;;;7.16;54.56;100343.64;105242;1270;75555;-27
2022/03/23 06:50:45;;;;;;;14.10;6.60;;;;;;;7.35;54.61;100341.55;105171;1270;75823;-27
2022/03/23 06:53:14;;;;;;;14.10;8.40;;;;;;;7.51;53.95;100337.14;104835;1271;74417;-27
2022/03/23 06:55:44;;;;;;;14.20;7.20;;;;;;;7.71;54.04;100341.03;104858;1270;61285;-27
2022/03/23 06:58:13;;;;;;;12.50;7.00;;;;;;;7.95;53.14;100333.14;105226;1270;61167;-27
2022/03/23 07:00:44;;;;;;;11.20;6.30;;;;;;;8.00;52.07;100332.36;104941;1270;74527;-27
2022/03/23 07:03:14;;;;;;;16.40;8.10;;;;;;;8.12;52.00;100332.79;105162;1270;75973;-27
2022/03/23 07:05:44;;;;;;;16.00;8.60;;;;;;;8.36;51.60;100333.12;105322;1271;73473;-27
2022/03/23 07:11:04;;;;;;;18.10;7.40;;;;;;;8.87;51.52;100331.35;105284;1271;61067;-25
2022/03/23 07:13:35;;;;;;;14.40;7.20;;;;;;;9.01;50.68;100329.94;104918;1271;75296;-29
2022/03/23 07:16:05;;;;;;;12.40;6.80;;;;;;;9.14;50.41;100333.23;105441;1271;75742;-28
2022/03/23 07:18:52;;;;;;;16.80;7.00;;;;;;;9.20;50.39;100333.23;105274;1271;74593;-29
2022/03/23 07:21:22;;;;;;;12.00;6.80;;;;;;;9.51;49.48;100333.61;105165;1271;61147;-28
2022/03/23 07:24:11;;;;;;;7.60;4.80;;;;;;;9.98;49.30;100331.61;105258;1271;63093;-24
2022/03/23 07:26:41;;;;;;;16.20;7.70;;;;;;;10.32;48.26;100330.82;105316;1269;74687;-30
2022/03/23 07:29:20;;;;;;;11.50;6.70;;;;;;;10.67;47.17;100323.36;105222;1271;76045;-31
2022/03/23 07:31:50;;;;;;;10.70;6.30;;;;;;;11.13;46.48;100327.52;105080;1271;74172;-31
2022/03/23 07:34:19;;;;;;;10.70;5.80;;;;;;;11.47;44.27;100326.06;105238;1271;61461;-29
2022/03/23 07:36:49;;;;;;;7.60;5.10;;;;;;;11.75;43.02;100320.91;105088;1271;61158;-28
2022/03/23 07:39:25;;;;;;;8.50;4.30;;;;;;;12.07;42.24;100322.80;105024;1271;75913;-28
2022/03/23 07:41:55;;;;;;;7.10;4.10;;;;;;;12.09;40.88;100319.60;105132;1271;73963;-27
2022/03/23 07:44:24;;;;;;;15.30;5.30;;;;;;;12.23;40.18;100322.80;105125;1272;75563;-30
2022/03/23 07:46:54;;;;;;;12.00;4.70;;;;;;;12.24;39.73;100324.27;105129;1271;61940;-27
2022/03/23 07:49:24;;;;;;;9.80;4.80;;;;;;;12.44;39.49;100323.09;105319;1271;61064;-29
2022/03/23 07:51:54;;;;;;;8.70;4.30;;;;;;;12.46;38.88;100324.73;105318;1271;74586;-29
2022/03/23 07:54:25;;;;;;;6.40;3.90;;;;;;;12.78;39.05;100321.12;105309;1271;76122;-30
2022/03/23 07:56:54;;;;;;;9.40;4.40;;;;;;;13.10;38.31;100319.91;105128;1271;74442;-28
2022/03/23 07:59:24;;;;;;;7.20;4.00;;;;;;;13.11;37.75;100319.33;105073;1271;62079;-29
2022/03/23 08:01:54;;;;;;;7.80;4.60;;;;;;;12.98;37.98;100313.41;105183;1271;61010;-28
2022/03/23 08:04:24;;;;;;;8.60;4.60;;;;;;;13.04;38.33;100309.19;104919;1271;73979;-29
2022/03/23 08:06:55;;;;;;;10.50;6.00;;;;;;;13.40;37.97;100311.64;104842;1271;74879;-29
2022/03/23 08:09:25;;;;;;;11.40;5.20;;;;;;;13.38;37.55;100306.92;104771;1271;74558;-28
2022/03/23 08:11:56;;;;;;;10.30;5.40;;;;;;;13.41;37.63;100301.86;104929;1273;61054;-27
2022/03/23 08:14:26;;;;;;;10.90;5.10;;;;;;;13.51;37.38;100299.00;105117;1271;61125;-27
2022/03/23 08:16:57;;;;;;;10.10;4.90;;;;;;;13.66;37.34;100298.60;105110;1272;73510;-27
2022/03/23 08:19:27;;;;;;;11.50;5.20;;;;;;;13.88;36.45;100291.70;104989;1271;74521;-27
2022/03/23 08:21:57;;;;;;;11.90;6.10;;;;;;;14.18;36.71;100289.83;105010;1271;72940;-28
2022/03/23 08:24:29;;;;;;;13.30;4.40;;;;;;;13.98;36.51;100289.81;104784;1271;61171;-27
2022/03/23 08:27:01;;;;;;;9.40;4.90;;;;;;;13.92;36.60;100283.61;104813;1271;61473;-29
2022/03/23 08:29:30;;;;;;;9.40;4.70;;;;;;;14.10;35.24;100281.69;104840;1271;74557;-28
2022/03/23 08:32:00;;;;;;;8.30;4.00;;;;;;;14.19;35.33;100275.23;104774;1271;75745;-27
2022/03/23 08:34:33;;;;;;;37.30;5.00;;;;;;;14.36;35.38;100273.27;104780;1271;73377;-30
2022/03/23 08:37:03;;;;;;;6.40;4.40;;;;;;;14.38;34.51;100275.08;104809;1272;61128;-27
2022/03/23 08:39:34;;;;;;;10.70;4.70;;;;;;;14.48;34.40;100269.54;105122;1271;61277;-27
2022/03/23 08:42:05;;;;;;;6.50;3.90;;;;;;;14.56;34.53;100268.41;105048;1271;75486;-27
2022/03/23 08:44:35;;;;;;;9.30;4.40;;;;;;;14.85;34.29;100268.05;105030;1273;75252;-27
2022/03/23 08:47:05;;;;;;;11.90;4.60;;;;;;;14.63;34.82;100266.27;105131;1271;73421;-27
2022/03/23 08:49:35;;;;;;;8.90;4.60;;;;;;;14.68;34.25;100266.98;105096;1273;61138;-26
2022/03/23 08:52:06;;;;;;;9.70;4.10;;;;;;;14.95;33.46;100262.19;105148;1273;62211;-27
2022/03/23 08:54:37;;;;;;;9.80;5.20;;;;;;;14.71;34.07;100257.44;105064;1274;75374;-27
2022/03/23 08:57:06;;;;;;;9.40;4.40;;;;;;;15.10;33.87;100259.59;104989;1273;75028;-27
2022/03/23 08:59:37;;;;;;;7.90;4.60;;;;;;;15.23;33.43;100251.40;105129;1271;73400;-27
2022/03/23 09:02:07;;;;;;;11.60;4.70;;;;;;;15.04;33.79;100257.27;105085;1273;62103;-27
2022/03/23 09:04:38;;;;;;;7.90;4.60;;;;;;;15.33;33.40;100249.86;105054;1271;61096;-24
2022/03/23 09:07:07;;;;;;;10.00;4.90;;;;;;;15.42;33.30;100243.91;105284;1271;75569;-27
2022/03/23 09:09:38;;;;;;;9.20;4.40;;;;;;;15.36;32.19;100242.25;105290;1271;75762;-28
2022/03/23 09:12:18;;;;;;;13.20;4.60;;;;;;;15.37;31.86;100233.61;105149;1271;74741;-28
2022/03/23 09:14:48;;;;;;;9.30;4.60;;;;;;;15.57;31.67;100228.13;105229;1271;62297;-28
2022/03/23 09:17:19;;;;;;;9.50;4.30;;;;;;;15.77;31.76;100230.14;104952;1271;61767;-28
2022/03/23 09:19:50;;;;;;;11.20;3.50;;;;;;;15.84;31.44;100230.08;104910;1271;74574;-27
2022/03/23 09:22:21;;;;;;;7.70;3.80;;;;;;;16.24;30.29;100229.00;105304;1269;76018;-27
2022/03/23 09:24:50;;;;;;;9.10;4.00;;;;;;;16.40;30.58;100226.79;105102;1271;74488;-27
2022/03/23 09:27:20;;;;;;;6.00;2.90;;;;;;;16.29;30.30;100223.27;105091;1271;60956;-27
2022/03/23 09:29:51;;;;;;;7.00;3.40;;;;;;;16.51;29.81;100218.30;105140;1271;61168;-27
2022/03/23 09:32:22;;;;;;;7.80;3.50;;;;;;;16.26;29.64;100207.98;105138;1271;74362;-27
2022/03/23 09:34:52;;;;;;;7.70;3.60;;;;;;;16.36;30.35;100210.63;105102;1271;73332;-27
2022/03/23 09:40:24;;;;;;;7.40;3.60;;;;;;;16.17;31.72;100196.88;104856;1271;61856;-27
2022/03/23 09:43:04;;;;;;;8.50;4.30;;;;;;;16.44;30.65;100200.63;105143;1271;62147;-27
2022/03/23 09:48:09;;;;;;;10.80;4.90;;;;;;;16.17;30.23;100194.92;105113;1271;75959;-28
2022/03/23 09:50:41;;;;;;;9.10;3.80;;;;;;;16.60;30.11;100193.23;105045;1271;72489;-27
2022/03/23 09:53:10;;;;;;;8.60;4.10;;;;;;;16.79;29.94;100184.41;105147;1271;61198;-27
2022/03/23 09:55:42;;;;;;;6.70;3.40;;;;;;;16.90;30.59;100183.40;105053;1271;62039;-27
2022/03/23 09:58:12;;;;;;;9.40;4.70;;;;;;;16.96;29.61;100184.27;104946;1271;75595;-27
2022/03/23 10:00:44;;;;;;;12.80;4.40;;;;;;;17.62;28.92;100178.48;105294;1270;76152;-27
2022/03/23 10:03:15;;;;;;;6.90;3.60;;;;;;;17.90;28.74;100167.14;105173;1271;74369;-27
2022/03/23 10:06:19;;;;;;;5.80;3.10;;;;;;;17.36;28.60;100172.42;105107;1271;61217;-27
2022/03/23 10:09:08;;;;;;;5.20;3.30;;;;;;;17.59;27.94;100169.10;105005;1273;61811;-28
2022/03/23 10:11:57;;;;;;;7.00;3.10;;;;;;;17.75;28.37;100159.04;105107;1271;75454;-27
2022/03/23 10:15:26;;;;;;;10.00;2.80;;;;;;;17.80;28.12;100149.92;104901;1271;76190;-29
2022/03/23 10:18:20;;;;;;;4.50;2.40;;;;;;;17.76;26.85;100145.92;104796;1271;73489;-29
2022/03/23 10:21:10;;;;;;;8.60;3.40;;;;;;;17.41;27.32;100150.79;105115;1272;61152;-29
2022/03/23 10:24:02;;;;;;;9.30;3.20;;;;;;;17.32;27.82;100139.83;105000;1272;61231;-28
2022/03/23 10:26:36;;;;;;;7.50;4.00;;;;;;;17.73;28.08;100142.16;104720;1271;74620;-28
2022/03/23 10:29:20;;;;;;;9.50;3.50;;;;;;;17.76;27.60;100139.65;105101;1271;76127;-27
2022/03/23 10:32:01;;;;;;;5.20;3.10;;;;;;;17.91;27.19;100130.63;105093;1271;73786;-27
2022/03/23 10:34:47;;;;;;;10.00;4.00;;;;;;;17.51;28.09;100119.29;105055;1272;62123;-27
2022/03/23 10:37:25;;;;;;;7.00;4.40;;;;;;;17.97;27.23;100130.77;104809;1272;61927;-27
2022/03/23 10:39:57;;;;;;;7.70;2.80;;;;;;;17.83;26.62;100114.21;104723;1272;75629;-27
2022/03/23 10:42:33;;;;;;;7.20;3.40;;;;;;;17.57;26.28;100115.39;104776;1272;76175;-27
2022/03/23 10:45:11;;;;;;;6.10;3.30;;;;;;;17.82;27.09;100118.30;104856;1272;74212;-27
2022/03/23 10:47:41;;;;;;;6.00;3.00;;;;;;;17.74;27.58;100105.42;104788;1273;61056;-27
2022/03/23 10:50:26;;;;;;;7.60;3.60;;;;;;;17.95;25.67;100109.94;104946;1271;61199;-27
2022/03/23 10:52:56;;;;;;;8.10;3.70;;;;;;;18.17;25.78;100112.20;104909;1271;75660;-27
2022/03/23 10:55:36;;;;;;;6.70;3.20;;;;;;;18.48;25.27;100098.16;104671;1273;75294;-29
2022/03/23 10:58:13;;;;;;;6.90;3.20;;;;;;;18.38;25.78;100090.39;104628;1273;74173;-28
2022/03/23 11:00:46;;;;;;;6.30;3.10;;;;;;;18.40;26.40;100088.95;104782;1273;62088;-28
2022/03/23 11:03:16;;;;;;;6.80;2.80;;;;;;;17.78;26.37;100081.50;104838;1273;61109;-27
2022/03/23 11:05:48;;;;;;;5.70;2.60;;;;;;;17.94;26.17;100082.33;104938;1272;75469;-27
2022/03/23 11:08:22;;;;;;;4.60;2.40;;;;;;;18.08;26.16;100083.94;105099;1271;75991;-27
2022/03/23 11:16:48;;;;;;;7.70;3.10;;;;;;;18.36;25.29;100066.98;104829;1272;61851;-28
2022/03/23 11:19:24;;;;;;;6.20;2.50;;;;;;;18.41;25.62;100051.73;104660;1274;75516;-28
2022/03/23 11:22:01;;;;;;;7.60;3.00;;;;;;;17.97;25.31;100058.41;104789;1272;75122;-28
2022/03/23 11:24:38;;;;;;;5.10;2.40;;;;;;;17.33;25.67;100053.20;105116;1271;74395;-28
2022/03/23 11:27:28;;;;;;;5.30;2.50;;;;;;;17.73;25.49;100044.38;104635;1273;62083;-28
2022/03/23 11:29:58;;;;;;;6.80;2.40;;;;;;;17.80;25.54;100042.50;104657;1271;61584;-28
2022/03/23 11:32:33;;;;;;;7.10;2.30;;;;;;;18.08;25.35;100037.89;104822;1273;75360;-29
2022/03/23 11:35:04;;;;;;;3.90;2.30;;;;;;;18.07;24.56;100026.41;105077;1271;76372;-27
2022/03/23 11:37:35;;;;;;;6.60;2.40;;;;;;;17.97;24.21;100026.95;104864;1272;73441;-29
2022/03/23 11:40:06;;;;;;;3.10;1.90;;;;;;;17.79;24.86;100017.30;105052;1273;62403;-29
2022/03/23 11:42:38;;;;;;;8.40;1.80;;;;;;;17.70;25.50;100021.46;105147;1271;61118;-28
2022/03/23 11:45:12;;;;;;;4.00;2.10;;;;;;;17.75;25.60;100018.86;105126;1272;75378;-27
2022/03/23 11:47:51;;;;;;;3.20;1.80;;;;;;;17.88;24.85;100014.14;105035;1272;75706;-27
2022/03/23 11:50:35;;;;;;;5.10;2.30;;;;;;;18.10;23.91;100008.86;104974;1273;74297;-27
2022/03/23 11:53:27;;;;;;;7.00;3.50;;;;;;;17.58;25.74;100006.44;104920;1273;61777;-30
2022/03/23 11:55:57;;;;;;;8.60;3.10;;;;;;;17.50;25.11;100004.74;104843;1272;61434;-27
2022/03/23 11:58:36;;;;;;;2.80;1.70;;;;;;;17.30;25.61;99995.27;105108;1271;75652;-27
2022/03/23 12:01:10;;;;;;;4.50;2.10;;;;;;;17.62;26.22;99991.74;104987;1271;76034;-27
2022/03/23 12:03:47;;;;;;;6.10;2.20;;;;;;;17.31;25.80;99978.29;105165;1271;76470;-27
2022/03/23 12:06:19;;;;;;;4.20;2.30;;;;;;;17.49;25.98;99980.28;105129;1271;62464;-26